createdAt,value
2023-03-18T00:00:58.310Z,0.00
2023-03-18T00:01:58.938Z,0.00
2023-03-18T00:02:58.699Z,0.00
2023-03-18T00:03:54.933Z,0.00
2023-03-18T00:05:01.009Z,0.00
2023-03-18T00:05:54.709Z,0.00
2023-03-18T00:06:55.420Z,0.00
2023-03-18T00:09:24.011Z,0.00
2023-03-18T00:10:29.898Z,0.00
2023-03-18T00:11:34.416Z,0.00
2023-03-18T00:12:36.096Z,0.00
2023-03-18T00:13:28.262Z,0.00
2023-03-18T00:14:21.993Z,0.00
2023-03-18T00:15:29.147Z,0.00
2023-03-18T00:16:23.979Z,0.00
2023-03-18T00:17:31.930Z,0.00
2023-03-18T00:19:31.527Z,0.00
2023-03-18T00:20:31.008Z,0.00
2023-03-18T00:21:31.477Z,0.00
2023-03-18T00:22:30.735Z,0.00
2023-03-18T00:23:30.978Z,0.00
2023-03-18T00:24:30.724Z,0.00
2023-03-18T00:25:30.710Z,0.00
2023-03-18T00:26:30.679Z,0.00
2023-03-18T00:27:30.705Z,0.00
2023-03-18T00:28:30.911Z,0.00
2023-03-18T00:29:30.746Z,0.00
2023-03-18T00:30:30.957Z,0.00
2023-03-18T00:31:30.732Z,0.00
2023-03-18T00:32:30.906Z,0.00
2023-03-18T00:33:30.686Z,0.00
2023-03-18T00:34:30.598Z,0.00
2023-03-18T00:35:30.764Z,0.00
2023-03-18T00:36:30.591Z,0.00
2023-03-18T00:37:30.666Z,0.00
2023-03-18T00:38:35.646Z,0.00
2023-03-18T00:39:31.329Z,0.00
2023-03-18T00:40:30.826Z,0.00
2023-03-18T00:41:30.548Z,0.00
2023-03-18T00:42:30.519Z,0.00
2023-03-18T00:43:30.519Z,0.00
2023-03-18T00:44:30.492Z,0.00
2023-03-18T00:45:30.548Z,0.00
2023-03-18T00:46:30.531Z,0.00
2023-03-18T00:47:30.462Z,0.00
2023-03-18T00:48:30.478Z,0.00
2023-03-18T00:49:31.204Z,0.00
2023-03-18T00:50:48.441Z,0.00
2023-03-18T00:51:30.424Z,0.00
2023-03-18T00:52:32.179Z,0.00
2023-03-18T00:53:30.380Z,0.00
2023-03-18T00:54:33.620Z,0.00
2023-03-18T00:55:30.376Z,0.00
2023-03-18T00:56:30.378Z,0.00
2023-03-18T00:57:30.356Z,0.00
2023-03-18T00:58:30.348Z,0.00
2023-03-18T00:59:33.636Z,0.00
2023-03-18T01:00:30.483Z,0.00
2023-03-18T01:01:30.296Z,0.00
2023-03-18T01:02:31.125Z,0.00
2023-03-18T01:03:30.281Z,0.00
2023-03-18T01:04:30.300Z,0.00
2023-03-18T01:05:30.268Z,0.00
2023-03-18T01:06:30.363Z,0.00
2023-03-18T01:07:30.239Z,0.00
2023-03-18T01:08:31.979Z,0.00
2023-03-18T01:09:30.342Z,0.00
2023-03-18T01:10:30.412Z,0.00
2023-03-18T01:11:30.220Z,0.00
2023-03-18T01:12:30.204Z,0.00
2023-03-18T01:13:33.535Z,0.00
2023-03-18T01:14:30.288Z,0.00
2023-03-18T01:15:30.151Z,0.00
2023-03-18T01:16:30.308Z,0.00
2023-03-18T01:17:30.868Z,0.00
2023-03-18T01:18:30.144Z,0.00
2023-03-18T01:19:30.110Z,0.00
2023-03-18T01:20:30.441Z,0.00
2023-03-18T01:21:30.078Z,0.00
2023-03-18T01:22:30.853Z,0.00
2023-03-18T01:23:30.068Z,0.00
2023-03-18T01:24:30.067Z,0.00
2023-03-18T01:25:30.036Z,0.00
2023-03-18T01:26:30.058Z,0.00
2023-03-18T01:27:30.054Z,0.00
2023-03-18T01:28:30.054Z,0.00
2023-03-18T01:29:29.988Z,0.00
2023-03-18T01:30:30.251Z,0.00
2023-03-18T01:31:30.001Z,0.00
2023-03-18T01:32:48.216Z,0.00
2023-03-18T01:33:30.092Z,0.00
2023-03-18T01:34:29.977Z,0.00
2023-03-18T01:35:30.046Z,0.00
2023-03-18T01:36:29.950Z,0.00
2023-03-18T01:37:37.672Z,0.00
2023-03-18T01:38:37.904Z,0.00
2023-03-18T01:39:29.925Z,0.00
2023-03-18T01:40:30.135Z,0.00
2023-03-18T01:41:29.887Z,0.00
2023-03-18T01:42:40.636Z,0.00
2023-03-18T01:43:29.835Z,0.00
2023-03-18T01:44:29.843Z,0.00
2023-03-18T01:45:29.915Z,0.00
2023-03-18T01:46:33.060Z,0.00
2023-03-18T01:47:29.797Z,0.00
2023-03-18T01:48:29.813Z,0.00
2023-03-18T01:49:29.796Z,0.00
2023-03-18T01:50:30.132Z,0.00
2023-03-18T01:51:29.746Z,0.00
2023-03-18T01:52:29.997Z,0.00
2023-03-18T01:53:37.708Z,0.00
2023-03-18T01:54:29.821Z,0.00
2023-03-18T01:55:29.752Z,0.00
2023-03-18T01:56:29.728Z,0.00
2023-03-18T01:57:29.682Z,0.00
2023-03-18T01:58:30.014Z,0.00
2023-03-18T01:59:29.669Z,0.00
2023-03-18T02:00:29.887Z,0.00
2023-03-18T02:01:29.687Z,0.00
2023-03-18T02:02:29.657Z,0.00
2023-03-18T02:03:29.637Z,0.00
2023-03-18T02:04:30.702Z,0.00
2023-03-18T02:05:30.654Z,0.00
2023-03-18T02:06:29.621Z,0.00
2023-03-18T02:07:29.600Z,0.00
2023-03-18T02:08:29.571Z,0.00
2023-03-18T02:09:30.306Z,0.00
2023-03-18T02:10:29.753Z,0.00
2023-03-18T02:11:29.553Z,0.00
2023-03-18T02:12:29.542Z,0.00
2023-03-18T02:13:29.556Z,0.00
2023-03-18T02:14:29.796Z,0.00
2023-03-18T02:15:29.506Z,0.00
2023-03-18T02:16:29.544Z,0.00
2023-03-18T02:17:29.492Z,0.00
2023-03-18T02:18:29.473Z,0.00
2023-03-18T02:19:29.464Z,0.00
2023-03-18T02:20:29.723Z,0.00
2023-03-18T02:21:29.524Z,0.00
2023-03-18T02:22:29.403Z,0.00
2023-03-18T02:23:29.431Z,0.00
2023-03-18T02:24:40.125Z,0.00
2023-03-18T02:25:29.405Z,0.00
2023-03-18T02:26:29.389Z,0.00
2023-03-18T02:27:29.384Z,0.00
2023-03-18T02:28:29.393Z,0.00
2023-03-18T02:29:34.623Z,0.00
2023-03-18T02:30:30.066Z,0.00
2023-03-18T02:31:37.129Z,0.00
2023-03-18T02:32:29.318Z,0.00
2023-03-18T02:33:29.320Z,0.00
2023-03-18T02:34:29.526Z,0.00
2023-03-18T02:35:29.366Z,0.00
2023-03-18T02:36:29.272Z,0.00
2023-03-18T02:37:29.271Z,0.00
2023-03-18T02:38:29.245Z,0.00
2023-03-18T02:39:31.353Z,0.00
2023-03-18T02:40:29.390Z,0.00
2023-03-18T02:41:29.228Z,0.00
2023-03-18T02:42:29.183Z,0.00
2023-03-18T02:43:29.202Z,0.00
2023-03-18T02:44:29.403Z,0.00
2023-03-18T02:45:34.675Z,0.00
2023-03-18T02:46:29.174Z,0.00
2023-03-18T02:47:29.152Z,0.00
2023-03-18T02:48:29.136Z,0.00
2023-03-18T02:49:29.152Z,0.00
2023-03-18T02:50:42.231Z,0.00
2023-03-18T02:51:29.152Z,0.00
2023-03-18T02:52:29.087Z,0.00
2023-03-18T02:53:29.108Z,0.00
2023-03-18T02:54:29.062Z,0.00
2023-03-18T02:55:29.082Z,0.00
2023-03-18T02:56:29.056Z,0.00
2023-03-18T02:57:29.058Z,0.00
2023-03-18T02:58:29.013Z,0.00
2023-03-18T02:59:29.024Z,0.00
2023-03-18T03:00:29.012Z,0.00
2023-03-18T03:01:29.055Z,0.00
2023-03-18T03:02:29.049Z,0.00
2023-03-18T03:03:29.040Z,0.00
2023-03-18T03:04:28.997Z,0.00
2023-03-18T03:05:29.006Z,0.00
2023-03-18T03:06:28.953Z,0.00
2023-03-18T03:07:28.964Z,0.00
2023-03-18T03:08:29.110Z,0.00
2023-03-18T03:09:28.953Z,0.00
2023-03-18T03:10:28.925Z,0.00
2023-03-18T03:11:28.914Z,0.00
2023-03-18T03:12:28.879Z,0.00
2023-03-18T03:13:28.923Z,0.00
2023-03-18T03:14:28.843Z,0.00
2023-03-18T03:15:28.934Z,0.00
2023-03-18T03:16:28.854Z,0.00
2023-03-18T03:17:28.824Z,0.00
2023-03-18T03:18:28.823Z,0.00
2023-03-18T03:19:28.824Z,0.00
2023-03-18T03:20:29.190Z,0.00
2023-03-18T03:21:28.794Z,0.00
2023-03-18T03:22:28.745Z,0.00
2023-03-18T03:23:28.775Z,0.00
2023-03-18T03:24:28.724Z,0.00
2023-03-18T03:25:28.926Z,0.00
2023-03-18T03:26:28.923Z,0.00
2023-03-18T03:27:28.791Z,0.00
2023-03-18T03:28:28.759Z,0.00
2023-03-18T03:29:28.693Z,0.00
2023-03-18T03:30:28.664Z,0.00
2023-03-18T03:31:28.771Z,0.00
2023-03-18T03:32:28.770Z,0.00
2023-03-18T03:33:28.676Z,0.00
2023-03-18T03:34:28.623Z,0.00
2023-03-18T03:35:28.643Z,0.00
2023-03-18T03:36:28.634Z,0.00
2023-03-18T03:37:28.625Z,0.00
2023-03-18T03:38:28.571Z,0.00
2023-03-18T03:39:28.630Z,0.00
2023-03-18T03:40:28.555Z,0.00
2023-03-18T03:41:28.684Z,0.00
2023-03-18T03:42:28.533Z,0.00
2023-03-18T03:43:28.535Z,0.00
2023-03-18T03:44:28.503Z,0.00
2023-03-18T03:45:28.535Z,0.00
2023-03-18T03:46:28.578Z,0.00
2023-03-18T03:47:28.514Z,0.00
2023-03-18T03:48:28.484Z,0.00
2023-03-18T03:49:28.534Z,0.00
2023-03-18T03:50:28.546Z,0.00
2023-03-18T03:51:28.520Z,0.00
2023-03-18T03:52:28.442Z,0.00
2023-03-18T03:53:28.436Z,0.00
2023-03-18T03:54:28.448Z,0.00
2023-03-18T03:55:28.391Z,0.00
2023-03-18T03:56:28.382Z,0.00
2023-03-18T03:57:28.479Z,0.00
2023-03-18T03:58:28.361Z,0.00
2023-03-18T03:59:28.357Z,0.00
2023-03-18T04:00:28.341Z,0.00
2023-03-18T04:01:28.336Z,0.00
2023-03-18T04:02:28.291Z,0.00
2023-03-18T04:03:28.310Z,0.00
2023-03-18T04:04:28.337Z,0.00
2023-03-18T04:05:28.380Z,0.00
2023-03-18T04:06:28.388Z,0.00
2023-03-18T04:07:28.276Z,0.00
2023-03-18T04:08:28.223Z,0.00
2023-03-18T04:09:28.232Z,0.00
2023-03-18T04:10:28.231Z,0.00
2023-03-18T04:11:28.241Z,0.00
2023-03-18T04:12:28.195Z,0.00
2023-03-18T04:13:28.362Z,0.00
2023-03-18T04:14:28.150Z,0.00
2023-03-18T04:15:28.179Z,0.00
2023-03-18T04:16:28.228Z,0.00
2023-03-18T04:17:28.172Z,0.00
2023-03-18T04:18:28.141Z,0.00
2023-03-18T04:19:28.129Z,0.00
2023-03-18T04:20:28.098Z,0.00
2023-03-18T04:21:28.127Z,0.00
2023-03-18T04:22:28.089Z,0.00
2023-03-18T04:23:28.074Z,0.00
2023-03-18T04:24:28.088Z,0.00
2023-03-18T04:25:28.068Z,0.00
2023-03-18T04:26:28.319Z,0.00
2023-03-18T04:27:28.060Z,0.00
2023-03-18T04:28:28.051Z,0.00
2023-03-18T04:29:28.039Z,0.00
2023-03-18T04:30:28.018Z,0.00
2023-03-18T04:31:28.027Z,0.00
2023-03-18T04:32:28.018Z,0.00
2023-03-18T04:33:27.988Z,0.00
2023-03-18T04:34:27.956Z,0.00
2023-03-18T04:35:27.962Z,0.00
2023-03-18T04:36:27.916Z,0.00
2023-03-18T04:37:27.948Z,0.00
2023-03-18T04:38:27.969Z,0.00
2023-03-18T04:39:27.916Z,0.00
2023-03-18T04:40:27.915Z,0.00
2023-03-18T04:41:27.925Z,0.00
2023-03-18T04:42:27.878Z,0.00
2023-03-18T04:43:27.876Z,0.00
2023-03-18T04:44:27.888Z,0.00
2023-03-18T04:45:27.844Z,0.00
2023-03-18T04:46:28.445Z,0.00
2023-03-18T04:47:28.366Z,0.00
2023-03-18T04:48:27.816Z,0.00
2023-03-18T04:49:27.810Z,0.00
2023-03-18T04:50:27.780Z,0.00
2023-03-18T04:51:27.777Z,0.00
2023-03-18T04:52:27.760Z,0.00
2023-03-18T04:53:27.753Z,0.00
2023-03-18T04:54:27.710Z,0.00
2023-03-18T04:55:27.742Z,0.00
2023-03-18T04:56:27.771Z,0.00
2023-03-18T04:57:27.737Z,0.00
2023-03-18T04:58:27.702Z,0.00
2023-03-18T04:59:27.700Z,0.00
2023-03-18T05:00:27.656Z,0.00
2023-03-18T05:01:27.634Z,0.00
2023-03-18T05:02:27.697Z,0.00
2023-03-18T05:03:27.625Z,0.00
2023-03-18T05:04:27.685Z,0.00
2023-03-18T05:05:28.022Z,0.00
2023-03-18T05:06:27.598Z,0.00
2023-03-18T05:07:27.615Z,0.00
2023-03-18T05:08:27.636Z,0.00
2023-03-18T05:09:27.565Z,0.00
2023-03-18T05:10:27.573Z,0.00
2023-03-18T05:11:27.560Z,0.00
2023-03-18T05:12:27.594Z,0.00
2023-03-18T05:13:27.510Z,0.00
2023-03-18T05:14:27.520Z,4.00
2023-03-18T05:15:27.501Z,4.00
2023-03-18T05:16:27.609Z,4.00
2023-03-18T05:17:27.463Z,4.00
2023-03-18T05:18:27.952Z,4.00
2023-03-18T05:19:27.493Z,8.00
2023-03-18T05:20:27.487Z,8.00
2023-03-18T05:21:30.045Z,8.00
2023-03-18T05:22:27.537Z,12.00
2023-03-18T05:23:27.463Z,12.00
2023-03-18T05:24:27.476Z,16.00
2023-03-18T05:25:27.370Z,16.00
2023-03-18T05:26:27.433Z,20.00
2023-03-18T05:27:27.576Z,24.00
2023-03-18T05:28:27.558Z,24.00
2023-03-18T05:29:27.360Z,32.00
2023-03-18T05:30:27.345Z,36.00
2023-03-18T05:31:27.570Z,40.00
2023-03-18T05:32:27.312Z,44.00
2023-03-18T05:33:27.290Z,48.00
2023-03-18T05:34:27.331Z,56.00
2023-03-18T05:35:27.269Z,64.00
2023-03-18T05:36:27.284Z,68.00
2023-03-18T05:37:27.232Z,76.00
2023-03-18T05:38:27.254Z,84.00
2023-03-18T05:39:27.246Z,92.00
2023-03-18T05:40:27.245Z,96.00
2023-03-18T05:41:27.204Z,108.00
2023-03-18T05:42:27.238Z,112.00
2023-03-18T05:43:27.210Z,124.00
2023-03-18T05:44:27.215Z,136.00
2023-03-18T05:45:27.180Z,144.00
2023-03-18T05:46:27.221Z,152.00
2023-03-18T05:47:27.119Z,164.00
2023-03-18T05:48:27.158Z,176.00
2023-03-18T05:49:27.152Z,184.00
2023-03-18T05:50:27.125Z,200.00
2023-03-18T05:51:27.094Z,212.00
2023-03-18T05:52:27.106Z,224.00
2023-03-18T05:53:27.050Z,240.00
2023-03-18T05:54:27.098Z,256.00
2023-03-18T05:55:27.066Z,276.00
2023-03-18T05:56:27.052Z,292.00
2023-03-18T05:57:27.023Z,308.00
2023-03-18T05:58:27.023Z,324.00
2023-03-18T05:59:27.024Z,336.00
2023-03-18T06:00:27.025Z,348.00
2023-03-18T06:01:26.977Z,360.00
2023-03-18T06:02:27.073Z,384.00
2023-03-18T06:03:26.970Z,396.00
2023-03-18T06:04:26.980Z,408.00
2023-03-18T06:05:27.050Z,424.00
2023-03-18T06:06:26.941Z,440.00
2023-03-18T06:07:26.917Z,452.00
2023-03-18T06:08:27.307Z,476.00
2023-03-18T06:09:27.298Z,488.00
2023-03-18T06:10:27.111Z,504.00
2023-03-18T06:11:26.860Z,512.00
2023-03-18T06:12:26.871Z,532.00
2023-03-18T06:13:26.861Z,532.00
2023-03-18T06:14:26.859Z,544.00
2023-03-18T06:15:26.831Z,572.00
2023-03-18T06:16:26.922Z,592.00
2023-03-18T06:17:26.815Z,600.00
2023-03-18T06:18:26.810Z,620.00
2023-03-18T06:19:26.791Z,684.00
2023-03-18T06:20:26.796Z,716.00
2023-03-18T06:21:26.750Z,740.00
2023-03-18T06:22:26.781Z,712.00
2023-03-18T06:23:26.744Z,704.00
2023-03-18T06:24:26.761Z,720.00
2023-03-18T06:25:26.721Z,752.00
2023-03-18T06:26:26.725Z,764.00
2023-03-18T06:27:26.700Z,768.00
2023-03-18T06:28:26.825Z,764.00
2023-03-18T06:29:26.864Z,780.00
2023-03-18T06:30:26.733Z,784.00
2023-03-18T06:31:26.985Z,788.00
2023-03-18T06:32:26.660Z,800.00
2023-03-18T06:33:26.657Z,816.00
2023-03-18T06:34:26.638Z,820.00
2023-03-18T06:35:26.618Z,824.00
2023-03-18T06:36:26.627Z,836.00
2023-03-18T06:37:26.592Z,860.00
2023-03-18T06:38:26.594Z,872.00
2023-03-18T06:39:26.567Z,908.00
2023-03-18T06:40:26.601Z,956.00
2023-03-18T06:41:26.554Z,964.00
2023-03-18T06:42:26.565Z,976.00
2023-03-18T06:43:26.523Z,1000.00
2023-03-18T06:44:26.543Z,996.00
2023-03-18T06:45:26.529Z,1012.00
2023-03-18T06:46:26.607Z,1032.00
2023-03-18T06:47:26.496Z,1072.00
2023-03-18T06:48:26.500Z,1148.00
2023-03-18T06:49:26.568Z,1268.00
2023-03-18T06:50:27.178Z,1284.00
2023-03-18T06:51:26.444Z,1308.00
2023-03-18T06:52:26.473Z,1184.00
2023-03-18T06:53:26.500Z,1132.00
2023-03-18T06:54:26.491Z,1152.00
2023-03-18T06:55:26.434Z,1244.00
2023-03-18T06:56:26.441Z,1384.00
2023-03-18T06:57:26.377Z,1468.00
2023-03-18T06:58:26.377Z,1452.00
2023-03-18T06:59:26.518Z,1516.00
2023-03-18T07:00:26.430Z,1692.00
2023-03-18T07:01:26.367Z,1856.00
2023-03-18T07:02:26.335Z,2052.00
2023-03-18T07:03:26.343Z,1984.00
2023-03-18T07:04:26.384Z,1872.00
2023-03-18T07:05:26.662Z,1772.00
2023-03-18T07:06:26.307Z,1896.00
2023-03-18T07:07:26.262Z,1972.00
2023-03-18T07:08:26.269Z,1888.00
2023-03-18T07:09:26.227Z,1896.00
2023-03-18T07:10:26.497Z,1852.00
2023-03-18T07:11:26.537Z,1896.00
2023-03-18T07:12:26.233Z,1904.00
2023-03-18T07:13:26.202Z,1924.00
2023-03-18T07:14:26.231Z,2024.00
2023-03-18T07:15:26.176Z,1980.00
2023-03-18T07:16:26.248Z,1752.00
2023-03-18T07:17:26.164Z,1672.00
2023-03-18T07:18:26.156Z,1812.00
2023-03-18T07:19:26.130Z,1656.00
2023-03-18T07:20:26.158Z,1780.00
2023-03-18T07:21:26.095Z,1852.00
2023-03-18T07:22:26.118Z,1712.00
2023-03-18T07:23:26.104Z,1564.00
2023-03-18T07:24:26.118Z,1492.00
2023-03-18T07:25:26.124Z,1456.00
2023-03-18T07:26:26.111Z,1428.00
2023-03-18T07:27:26.045Z,1424.00
2023-03-18T07:28:26.180Z,1428.00
2023-03-18T07:29:26.016Z,1428.00
2023-03-18T07:30:26.812Z,1436.00
2023-03-18T07:31:26.062Z,1448.00
2023-03-18T07:32:26.044Z,1456.00
2023-03-18T07:33:25.954Z,1460.00
2023-03-18T07:34:25.993Z,1464.00
2023-03-18T07:35:25.990Z,1476.00
2023-03-18T07:36:25.974Z,1488.00
2023-03-18T07:37:25.921Z,1500.00
2023-03-18T07:38:25.933Z,1504.00
2023-03-18T07:39:25.922Z,1524.00
2023-03-18T07:40:25.909Z,1560.00
2023-03-18T07:41:25.963Z,1600.00
2023-03-18T07:42:25.896Z,1660.00
2023-03-18T07:43:25.848Z,1756.00
2023-03-18T07:44:25.873Z,1924.00
2023-03-18T07:45:25.871Z,2076.00
2023-03-18T07:46:25.922Z,1996.00
2023-03-18T07:47:25.813Z,1852.00
2023-03-18T07:48:25.836Z,1716.00
2023-03-18T07:49:25.783Z,1624.00
2023-03-18T07:50:25.853Z,1588.00
2023-03-18T07:51:25.918Z,1596.00
2023-03-18T07:52:25.774Z,1612.00
2023-03-18T07:53:25.735Z,1604.00
2023-03-18T07:54:25.813Z,1608.00
2023-03-18T07:55:25.724Z,1624.00
2023-03-18T07:56:25.758Z,1632.00
2023-03-18T07:57:25.798Z,1636.00
2023-03-18T07:58:25.729Z,1644.00
2023-03-18T07:59:25.677Z,1648.00
2023-03-18T08:00:25.950Z,1644.00
2023-03-18T08:01:25.690Z,1652.00
2023-03-18T08:02:25.711Z,1656.00
2023-03-18T08:03:25.646Z,1672.00
2023-03-18T08:04:25.830Z,1684.00
2023-03-18T08:05:25.667Z,1680.00
2023-03-18T08:06:25.631Z,1688.00
2023-03-18T08:07:25.602Z,1696.00
2023-03-18T08:08:25.618Z,1720.00
2023-03-18T08:09:25.567Z,1724.00
2023-03-18T08:10:25.582Z,1740.00
2023-03-18T08:11:25.587Z,1748.00
2023-03-18T08:12:25.795Z,1760.00
2023-03-18T08:13:25.548Z,1768.00
2023-03-18T08:14:25.528Z,1788.00
2023-03-18T08:15:25.533Z,1808.00
2023-03-18T08:16:25.535Z,1804.00
2023-03-18T08:17:25.779Z,1812.00
2023-03-18T08:18:25.530Z,1816.00
2023-03-18T08:19:25.461Z,1840.00
2023-03-18T08:20:26.087Z,1880.00
2023-03-18T08:21:25.632Z,1908.00
2023-03-18T08:22:25.696Z,1908.00
2023-03-18T08:23:25.621Z,1932.00
2023-03-18T08:24:25.636Z,1952.00
2023-03-18T08:25:25.443Z,1980.00
2023-03-18T08:26:25.403Z,1992.00
2023-03-18T08:27:25.395Z,1988.00
2023-03-18T08:28:25.374Z,1968.00
2023-03-18T08:29:25.340Z,1976.00
2023-03-18T08:30:25.420Z,1992.00
2023-03-18T08:31:25.326Z,1952.00
2023-03-18T08:32:25.737Z,1908.00
2023-03-18T08:33:25.303Z,1900.00
2023-03-18T08:34:25.290Z,1904.00
2023-03-18T08:35:25.264Z,1912.00
2023-03-18T08:36:25.282Z,1916.00
2023-03-18T08:37:25.280Z,1916.00
2023-03-18T08:38:25.317Z,1944.00
2023-03-18T08:39:25.305Z,1956.00
2023-03-18T08:40:25.279Z,1968.00
2023-03-18T08:41:25.224Z,1992.00
2023-03-18T08:42:25.217Z,2020.00
2023-03-18T08:43:25.191Z,2068.00
2023-03-18T08:44:25.207Z,2152.00
2023-03-18T08:45:25.209Z,2216.00
2023-03-18T08:46:25.233Z,2296.00
2023-03-18T08:47:25.174Z,2344.00
2023-03-18T08:48:25.151Z,2340.00
2023-03-18T08:49:25.110Z,2368.00
2023-03-18T08:50:25.124Z,2392.00
2023-03-18T08:51:25.096Z,2400.00
2023-03-18T08:52:25.463Z,2552.00
2023-03-18T08:53:25.462Z,2560.00
2023-03-18T08:54:25.108Z,2492.00
2023-03-18T08:55:25.062Z,2156.00
2023-03-18T08:56:25.065Z,2316.00
2023-03-18T08:57:25.015Z,2276.00
2023-03-18T08:58:25.071Z,2296.00
2023-03-18T08:59:25.015Z,2264.00
2023-03-18T09:00:25.024Z,2240.00
2023-03-18T09:01:25.162Z,2268.00
2023-03-18T09:02:25.005Z,2284.00
2023-03-18T09:03:25.018Z,2252.00
2023-03-18T09:04:24.991Z,2448.00
2023-03-18T09:05:24.947Z,2016.00
2023-03-18T09:06:24.994Z,2444.00
2023-03-18T09:07:24.942Z,2344.00
2023-03-18T09:08:24.935Z,2348.00
2023-03-18T09:09:37.341Z,2100.00
2023-03-18T09:10:25.967Z,2416.00
2023-03-18T09:11:24.886Z,2628.00
2023-03-18T09:12:24.899Z,2748.00
2023-03-18T09:13:24.985Z,2988.00
2023-03-18T09:14:24.868Z,2968.00
2023-03-18T09:15:24.844Z,2992.00
2023-03-18T09:16:24.893Z,2940.00
2023-03-18T09:17:39.128Z,2700.00
2023-03-18T09:18:25.793Z,2724.00
2023-03-18T09:19:24.837Z,2412.00
2023-03-18T09:20:24.785Z,2736.00
2023-03-18T09:21:24.793Z,2740.00
2023-03-18T09:22:24.942Z,2744.00
2023-03-18T09:23:24.833Z,2892.00
2023-03-18T09:24:24.721Z,2672.00
2023-03-18T09:25:24.739Z,2644.00
2023-03-18T09:26:24.732Z,2684.00
2023-03-18T09:27:24.857Z,2580.00
2023-03-18T09:28:25.196Z,2688.00
2023-03-18T09:29:24.705Z,2652.00
2023-03-18T09:30:24.705Z,2660.00
2023-03-18T09:31:24.808Z,2712.00
2023-03-18T09:32:24.650Z,2868.00
2023-03-18T09:33:25.449Z,2944.00
2023-03-18T09:34:25.353Z,3012.00
2023-03-18T09:35:24.643Z,3212.00
2023-03-18T09:36:24.601Z,3768.00
2023-03-18T09:37:24.611Z,3784.00
2023-03-18T09:38:24.590Z,5148.00
2023-03-18T09:39:24.598Z,4088.00
2023-03-18T09:40:24.606Z,3804.00
2023-03-18T09:41:24.650Z,3528.00
2023-03-18T09:42:24.640Z,3440.00
2023-03-18T09:43:24.542Z,3572.00
2023-03-18T09:44:24.517Z,3588.00
2023-03-18T09:45:24.540Z,3780.00
2023-03-18T09:46:24.604Z,4084.00
2023-03-18T09:47:24.580Z,4132.00
2023-03-18T09:48:24.473Z,4432.00
2023-03-18T09:49:24.511Z,4196.00
2023-03-18T09:50:24.522Z,4104.00
2023-03-18T09:51:24.481Z,4108.00
2023-03-18T09:52:24.504Z,4128.00
2023-03-18T09:53:24.684Z,3996.00
2023-03-18T09:54:24.553Z,3904.00
2023-03-18T09:55:24.705Z,3884.00
2023-03-18T09:56:24.494Z,3800.00
2023-03-18T09:57:24.374Z,3912.00
2023-03-18T09:58:24.371Z,3756.00
2023-03-18T09:59:24.358Z,3800.00
2023-03-18T10:00:24.461Z,3904.00
2023-03-18T10:01:24.381Z,3900.00
2023-03-18T10:02:24.604Z,3920.00
2023-03-18T10:03:24.350Z,3928.00
2023-03-18T10:04:24.302Z,3884.00
2023-03-18T10:05:24.287Z,4144.00
2023-03-18T10:06:24.653Z,4352.00
2023-03-18T10:07:24.341Z,4556.00
2023-03-18T10:08:24.276Z,4708.00
2023-03-18T10:09:24.258Z,4656.00
2023-03-18T10:10:24.248Z,4728.00
2023-03-18T10:11:24.224Z,4336.00
2023-03-18T10:12:24.220Z,4548.00
2023-03-18T10:13:24.211Z,4952.00
2023-03-18T10:14:24.307Z,5664.00
2023-03-18T10:15:24.215Z,5752.00
2023-03-18T10:16:24.247Z,5512.00
2023-03-18T10:17:24.154Z,5088.00
2023-03-18T10:18:24.134Z,5092.00
2023-03-18T10:19:24.212Z,5312.00
2023-03-18T10:20:24.127Z,6032.00
2023-03-18T10:21:24.110Z,6364.00
2023-03-18T10:22:24.070Z,6832.00
2023-03-18T10:23:24.153Z,6804.00
2023-03-18T10:24:24.070Z,5944.00
2023-03-18T10:25:24.074Z,5348.00
2023-03-18T10:26:24.033Z,5120.00
2023-03-18T10:27:24.112Z,3904.00
2023-03-18T10:28:24.032Z,4112.00
2023-03-18T10:29:24.062Z,4724.00
2023-03-18T10:30:24.052Z,4796.00
2023-03-18T10:31:24.092Z,5640.00
2023-03-18T10:32:24.054Z,5464.00
2023-03-18T10:33:24.020Z,5076.00
2023-03-18T10:34:24.127Z,5076.00
2023-03-18T10:35:24.336Z,4728.00
2023-03-18T10:36:23.958Z,4756.00
2023-03-18T10:37:23.959Z,4804.00
2023-03-18T10:38:23.928Z,4832.00
2023-03-18T10:39:23.925Z,5560.00
2023-03-18T10:40:24.002Z,5240.00
2023-03-18T10:41:25.938Z,4776.00
2023-03-18T10:42:23.876Z,4896.00
2023-03-18T10:43:23.917Z,4976.00
2023-03-18T10:44:23.877Z,5168.00
2023-03-18T10:45:23.837Z,5200.00
2023-03-18T10:46:24.001Z,5600.00
2023-03-18T10:47:23.906Z,5436.00
2023-03-18T10:48:23.797Z,5156.00
2023-03-18T10:49:23.796Z,5188.00
2023-03-18T10:50:23.864Z,5360.00
2023-03-18T10:51:23.796Z,5488.00
2023-03-18T10:52:23.747Z,4976.00
2023-03-18T10:53:23.780Z,4960.00
2023-03-18T10:54:23.736Z,4724.00
2023-03-18T10:55:23.957Z,4528.00
2023-03-18T10:56:23.711Z,4432.00
2023-03-18T10:57:23.721Z,4308.00
2023-03-18T10:58:23.706Z,4484.00
2023-03-18T10:59:23.754Z,4280.00
2023-03-18T11:00:23.678Z,4196.00
2023-03-18T11:01:23.691Z,4236.00
2023-03-18T11:02:23.700Z,4496.00
2023-03-18T11:03:23.667Z,5048.00
2023-03-18T11:04:23.608Z,5324.00
2023-03-18T11:05:23.641Z,5024.00
2023-03-18T11:06:23.589Z,5576.00
2023-03-18T11:07:23.660Z,5516.00
2023-03-18T11:08:23.566Z,5192.00
2023-03-18T11:09:23.640Z,5112.00
2023-03-18T11:10:23.625Z,5324.00
2023-03-18T11:11:23.588Z,5220.00
2023-03-18T11:12:23.616Z,5016.00
2023-03-18T11:13:23.536Z,4628.00
2023-03-18T11:14:23.518Z,4672.00
2023-03-18T11:15:23.685Z,5068.00
2023-03-18T11:16:23.537Z,5316.00
2023-03-18T11:17:23.546Z,5888.00
2023-03-18T11:18:23.463Z,5816.00
2023-03-18T11:19:23.469Z,5312.00
2023-03-18T11:20:23.481Z,5060.00
2023-03-18T11:21:23.470Z,4980.00
2023-03-18T11:22:23.430Z,5124.00
2023-03-18T11:23:23.458Z,5160.00
2023-03-18T11:24:23.412Z,5540.00
2023-03-18T11:25:23.543Z,5624.00
2023-03-18T11:26:23.638Z,5836.00
2023-03-18T11:27:23.381Z,5072.00
2023-03-18T11:28:23.385Z,5156.00
2023-03-18T11:29:23.381Z,4972.00
2023-03-18T11:30:38.800Z,4948.00
2023-03-18T11:31:24.397Z,4724.00
2023-03-18T11:32:23.320Z,4704.00
2023-03-18T11:33:23.326Z,4776.00
2023-03-18T11:34:23.290Z,4900.00
2023-03-18T11:35:23.318Z,4908.00
2023-03-18T11:36:24.755Z,4972.00
2023-03-18T11:37:25.744Z,4956.00
2023-03-18T11:38:23.271Z,4872.00
2023-03-18T11:39:23.237Z,4904.00
2023-03-18T11:40:23.328Z,4616.00
2023-03-18T11:41:23.253Z,4740.00
2023-03-18T11:42:23.242Z,4724.00
2023-03-18T11:43:23.241Z,4592.00
2023-03-18T11:44:23.168Z,4488.00
2023-03-18T11:45:23.224Z,4432.00
2023-03-18T11:46:23.356Z,4532.00
2023-03-18T11:47:23.166Z,4468.00
2023-03-18T11:48:23.133Z,4324.00
2023-03-18T11:49:23.133Z,4004.00
2023-03-18T11:50:23.095Z,3856.00
2023-03-18T11:51:25.252Z,3996.00
2023-03-18T11:52:23.108Z,4196.00
2023-03-18T11:53:23.086Z,4304.00
2023-03-18T11:54:23.062Z,4288.00
2023-03-18T11:55:23.083Z,4352.00
2023-03-18T11:56:23.043Z,4464.00
2023-03-18T11:57:23.063Z,4788.00
2023-03-18T11:58:23.009Z,5276.00
2023-03-18T11:59:23.048Z,5208.00
2023-03-18T12:00:23.036Z,5240.00
2023-03-18T12:01:23.079Z,5392.00
2023-03-18T12:02:23.022Z,5576.00
2023-03-18T12:03:23.004Z,5824.00
2023-03-18T12:04:22.941Z,5912.00
2023-03-18T12:05:23.062Z,5848.00
2023-03-18T12:06:22.951Z,5864.00
2023-03-18T12:07:22.976Z,5888.00
2023-03-18T12:08:23.166Z,5896.00
2023-03-18T12:09:22.942Z,6028.00
2023-03-18T12:10:22.914Z,6288.00
2023-03-18T12:11:22.904Z,6560.00
2023-03-18T12:12:22.920Z,6620.00
2023-03-18T12:13:23.016Z,6520.00
2023-03-18T12:14:22.915Z,6484.00
2023-03-18T12:15:22.852Z,6608.00
2023-03-18T12:16:22.844Z,6652.00
2023-03-18T12:17:22.914Z,6632.00
2023-03-18T12:18:22.810Z,6588.00
2023-03-18T12:19:22.801Z,6392.00
2023-03-18T12:20:22.768Z,6220.00
2023-03-18T12:21:22.933Z,6228.00
2023-03-18T12:22:22.739Z,6552.00
2023-03-18T12:23:22.768Z,6736.00
2023-03-18T12:24:22.715Z,6816.00
2023-03-18T12:25:22.751Z,6872.00
2023-03-18T12:26:22.682Z,6972.00
2023-03-18T12:27:22.729Z,6948.00
2023-03-18T12:28:22.682Z,6952.00
2023-03-18T12:29:22.696Z,6828.00
2023-03-18T12:30:22.670Z,6716.00
2023-03-18T12:31:22.742Z,6700.00
2023-03-18T12:32:22.614Z,6644.00
2023-03-18T12:33:22.644Z,6636.00
2023-03-18T12:34:22.638Z,6688.00
2023-03-18T12:35:22.634Z,6784.00
2023-03-18T12:36:22.614Z,6836.00
2023-03-18T12:37:22.605Z,6980.00
2023-03-18T12:38:22.586Z,7128.00
2023-03-18T12:39:22.609Z,7192.00
2023-03-18T12:40:22.539Z,7184.00